Nearby METAR Reports

 

CYWG - Winnipeg Intl Ar, Manitoba, Canada
Distance from station: NE 28km
Updated: 16/06/2024 07:00
Overcast
Overcast
 Wind from S
Wind: S 17 km/h
Temperature: 17°C
Dew Point: 17°C
Humidity: 100%
Barometer: 997.6 hPa
Clouds: Overcast
Visibility: 24 km
Cloud details: Few Clouds 152 m
Partly cloudy 4572 m
Overcast 6706 m
2024/06/16 12:00 CYWG 161200Z 17009KT 15SM FEW005 SCT150 OVC220 17/17 A2946 RMK SC2AC2CI4 SLP976 DENSITY ALT 1700FT
CWNK - Carman U Of M, Manitoba, Canada
Distance from station: WSW 47km
Updated: 16/06/2024 07:00

 Wind from S
Wind: S 17 km/h
Temperature: 17°C
Dew Point: 16°C
Humidity: 94%
2024/06/16 12:00 CWNK 161200Z AUTO 17009KT 17/16 RMK AO1 5003 SLP980 T01700155 50187
CYPG - Portage Southport, Manitoba, Canada
Distance from station: WNW 64km
Updated: 14/06/2024 17:00
NOT Current
Mostly cloudy
Mostly cloudy
 Wind from SW
Wind: SW 13 km/h
Temperature: 25°C
Dew Point: 10°C
Humidity: 39%
Barometer: 1013.5 hPa
Clouds: Mostly cloudy
Visibility: 24 km
Cloud details: Few Clouds 1829 m
Partly cloudy 4877 m
Partly cloudy 7620 m
Mostly cloudy 8839 m
2024/06/14 22:00 CYPG 142200Z 22007KT 160V260 15SM FEW060 SCT160 SCT250 BKN290 25/10 A2993 RMK CU2AC1CI1CC1 DENSITY ALT 2433FT LAST OBS /NEXT 171100 UTC SLP135